createdAt,value
2022-10-18T00:00:54.519Z,13.13
2022-10-18T00:03:23.090Z,12.47
2022-10-18T00:05:51.171Z,13.90
2022-10-18T00:08:19.958Z,14.77
2022-10-18T00:10:47.867Z,11.73
2022-10-18T00:13:17.105Z,12.67
2022-10-18T00:15:50.029Z,12.73
2022-10-18T00:18:18.002Z,11.87
2022-10-18T00:20:45.904Z,19.30
2022-10-18T00:23:13.905Z,12.80
2022-10-18T00:25:41.682Z,15.57
2022-10-18T00:28:09.439Z,13.70
2022-10-18T00:30:38.632Z,13.03
2022-10-18T00:33:06.411Z,13.73
2022-10-18T00:35:36.151Z,16.33
2022-10-18T00:38:03.992Z,14.10
2022-10-18T00:40:31.758Z,13.90
2022-10-18T00:42:59.509Z,12.60
2022-10-18T00:45:27.986Z,13.37
2022-10-18T00:48:00.456Z,15.27
2022-10-18T00:50:31.179Z,13.63
2022-10-18T00:53:02.114Z,13.93
2022-10-18T00:55:32.815Z,13.27
2022-10-18T00:58:02.004Z,15.47
2022-10-18T01:00:29.812Z,12.33
2022-10-18T01:02:59.961Z,15.20
2022-10-18T01:05:27.978Z,12.00
2022-10-18T01:08:16.139Z,12.70
2022-10-18T01:10:49.078Z,14.17
2022-10-18T01:13:29.080Z,12.70
2022-10-18T01:16:01.369Z,13.90
2022-10-18T01:18:37.023Z,12.30
2022-10-18T01:21:12.341Z,12.67
2022-10-18T01:24:08.098Z,11.50
2022-10-18T01:26:53.866Z,12.23
2022-10-18T01:29:31.076Z,16.23
2022-10-18T01:32:03.175Z,14.83
2022-10-18T01:34:36.294Z,13.10
2022-10-18T01:37:07.867Z,12.97
2022-10-18T01:39:38.640Z,13.43
2022-10-18T01:42:10.369Z,11.37
2022-10-18T01:44:41.982Z,13.70
2022-10-18T01:47:13.462Z,13.30
2022-10-18T01:49:41.253Z,12.60
2022-10-18T01:52:11.503Z,12.90
2022-10-18T01:54:42.150Z,13.07
2022-10-18T01:57:16.302Z,13.60
2022-10-18T01:59:52.709Z,15.13
2022-10-18T02:02:36.741Z,13.13
2022-10-18T02:05:15.866Z,16.37
2022-10-18T02:08:00.100Z,14.20
2022-10-18T02:10:42.527Z,14.23
2022-10-18T02:13:12.531Z,15.87
2022-10-18T02:15:42.657Z,14.87
2022-10-18T02:18:18.237Z,12.97
2022-10-18T02:20:47.873Z,14.60
2022-10-18T02:23:17.557Z,13.30
2022-10-18T02:25:45.431Z,15.50
2022-10-18T02:28:13.411Z,15.47
2022-10-18T02:30:48.352Z,13.50
2022-10-18T02:33:22.233Z,13.37
2022-10-18T02:35:54.434Z,14.10
2022-10-18T02:38:25.798Z,17.33
2022-10-18T02:40:54.086Z,13.40
2022-10-18T02:43:24.848Z,13.70
2022-10-18T02:45:52.892Z,14.37
2022-10-18T02:48:22.034Z,13.57
2022-10-18T02:50:49.825Z,18.50
2022-10-18T02:53:17.613Z,12.93
2022-10-18T02:55:45.382Z,15.23
2022-10-18T02:58:14.687Z,13.87
2022-10-18T03:00:42.454Z,13.80
2022-10-18T03:03:10.289Z,12.97
2022-10-18T03:05:39.462Z,13.97
2022-10-18T03:08:07.205Z,13.23
2022-10-18T03:10:35.030Z,15.57
2022-10-18T03:13:02.826Z,13.33
2022-10-18T03:15:30.572Z,12.00
2022-10-18T03:17:58.362Z,13.80
2022-10-18T03:20:26.167Z,13.27
2022-10-18T03:22:55.297Z,14.70
2022-10-18T03:25:23.173Z,14.60
2022-10-18T03:27:50.941Z,12.83
2022-10-18T03:30:18.852Z,13.03
2022-10-18T03:32:46.636Z,13.47
2022-10-18T03:35:14.431Z,15.17
2022-10-18T03:37:42.198Z,14.60
2022-10-18T03:40:12.111Z,11.87
2022-10-18T03:42:39.873Z,14.07
2022-10-18T03:45:08.842Z,13.97
2022-10-18T03:47:36.660Z,13.33
2022-10-18T03:50:04.886Z,12.43
2022-10-18T03:52:33.210Z,14.80
2022-10-18T03:55:01.160Z,14.43
2022-10-18T03:57:30.300Z,12.53
2022-10-18T03:59:58.095Z,12.33
2022-10-18T04:02:27.018Z,14.17
2022-10-18T04:04:54.842Z,12.33
2022-10-18T04:07:22.648Z,16.70
2022-10-18T04:09:50.406Z,13.43
2022-10-18T04:12:18.177Z,13.47
2022-10-18T04:14:47.392Z,14.00
2022-10-18T04:17:15.185Z,13.17
2022-10-18T04:19:42.918Z,13.50
2022-10-18T04:22:11.988Z,12.50
2022-10-18T04:24:40.097Z,16.43
2022-10-18T04:27:08.655Z,13.80
2022-10-18T04:29:36.456Z,14.17
2022-10-18T04:32:05.858Z,14.27
2022-10-18T04:34:33.731Z,16.40
2022-10-18T04:37:01.663Z,16.20
2022-10-18T04:39:29.499Z,13.73
2022-10-18T04:41:57.416Z,13.47
2022-10-18T04:44:25.188Z,15.43
2022-10-18T04:46:53.068Z,15.27
2022-10-18T04:49:22.305Z,12.83
2022-10-18T04:51:50.110Z,13.93
2022-10-18T04:54:18.033Z,12.23
2022-10-18T04:56:45.841Z,12.30
2022-10-18T04:59:13.592Z,14.37
2022-10-18T05:01:41.484Z,12.03
2022-10-18T05:04:10.149Z,13.73
2022-10-18T05:06:39.342Z,12.77
2022-10-18T05:09:07.315Z,24.80
2022-10-18T05:11:35.075Z,14.33
2022-10-18T05:14:02.876Z,15.47
2022-10-18T05:16:31.951Z,16.10
2022-10-18T05:18:59.754Z,15.20
2022-10-18T05:21:27.519Z,13.40
2022-10-18T05:23:57.909Z,12.40
2022-10-18T05:26:25.707Z,14.07
2022-10-18T05:28:53.557Z,15.43
2022-10-18T05:31:21.382Z,12.47
2022-10-18T05:33:49.165Z,13.13
2022-10-18T05:36:16.926Z,14.57
2022-10-18T05:38:45.553Z,12.97
2022-10-18T05:41:15.203Z,14.07
2022-10-18T05:43:42.995Z,14.20
2022-10-18T05:46:15.015Z,17.27
2022-10-18T05:48:43.309Z,13.20
2022-10-18T05:51:11.144Z,14.63
2022-10-18T05:53:38.891Z,21.43
2022-10-18T05:56:07.742Z,20.40
2022-10-18T05:58:36.940Z,12.27
2022-10-18T06:01:06.353Z,12.83
2022-10-18T06:03:34.497Z,13.40
2022-10-18T06:06:02.592Z,13.67
2022-10-18T06:08:30.449Z,20.20
2022-10-18T06:10:58.220Z,15.67
2022-10-18T06:13:25.991Z,15.10
2022-10-18T06:15:58.419Z,16.37
2022-10-18T06:18:26.308Z,16.30
2022-10-18T06:20:57.989Z,14.40
2022-10-18T06:23:25.928Z,19.07
2022-10-18T06:25:53.799Z,17.80
2022-10-18T06:28:21.582Z,18.00
2022-10-18T06:30:49.349Z,19.57
2022-10-18T06:33:19.138Z,18.67
2022-10-18T06:35:55.538Z,17.97
2022-10-18T06:38:23.308Z,23.50
2022-10-18T06:40:51.248Z,21.80
2022-10-18T06:43:21.495Z,23.23
2022-10-18T06:45:49.664Z,22.10
2022-10-18T06:50:52.830Z,23.37
2022-10-18T06:53:20.606Z,24.27
2022-10-18T06:55:48.373Z,24.87
2022-10-18T06:58:16.169Z,23.30
2022-10-18T07:00:45.226Z,22.87
2022-10-18T07:03:13.059Z,23.23
2022-10-18T07:05:42.957Z,20.30
2022-10-18T07:08:10.825Z,22.47
2022-10-18T07:10:39.047Z,20.93
2022-10-18T07:13:31.491Z,25.03
2022-10-18T07:16:05.818Z,24.63
2022-10-18T07:18:35.525Z,29.23
2022-10-18T07:21:06.260Z,24.13
2022-10-18T07:23:35.073Z,25.47
2022-10-18T07:26:03.496Z,22.80
2022-10-18T07:28:31.782Z,21.93
2022-10-18T07:31:06.207Z,21.37
2022-10-18T07:33:34.306Z,24.80
2022-10-18T07:36:03.058Z,23.97
2022-10-18T07:38:32.282Z,28.10
2022-10-18T07:41:02.063Z,27.13
2022-10-18T07:43:30.336Z,26.73
2022-10-18T07:46:00.195Z,24.70
2022-10-18T07:48:28.713Z,25.83
2022-10-18T07:50:59.789Z,23.53
2022-10-18T07:53:27.917Z,26.87
2022-10-18T07:56:01.494Z,25.93
2022-10-18T07:58:32.219Z,25.83
2022-10-18T08:01:03.880Z,26.53
2022-10-18T08:03:31.876Z,25.63
2022-10-18T08:06:00.153Z,24.90
2022-10-18T08:08:28.580Z,35.70
2022-10-18T08:10:56.825Z,28.17
2022-10-18T08:13:26.020Z,27.37
2022-10-18T08:16:00.896Z,29.07
2022-10-18T08:18:28.747Z,27.77
2022-10-18T08:20:56.538Z,32.40
2022-10-18T08:23:24.331Z,34.10
2022-10-18T08:25:52.373Z,31.03
2022-10-18T08:28:20.219Z,33.63
2022-10-18T08:30:49.404Z,39.00
2022-10-18T08:33:17.179Z,40.77
2022-10-18T08:35:44.951Z,36.80
2022-10-18T08:38:16.579Z,47.07
2022-10-18T08:40:47.270Z,33.67
2022-10-18T08:43:23.580Z,37.87
2022-10-18T08:45:55.608Z,41.57
2022-10-18T08:48:28.569Z,38.03
2022-10-18T08:50:58.353Z,35.97
2022-10-18T08:53:30.855Z,39.90
2022-10-18T08:56:02.079Z,38.93
2022-10-18T08:58:33.508Z,34.73
2022-10-18T09:01:19.191Z,36.27
2022-10-18T09:04:01.858Z,37.17
2022-10-18T09:06:33.970Z,37.57
2022-10-18T09:09:20.240Z,32.20
2022-10-18T09:15:41.854Z,35.97
2022-10-18T09:18:22.333Z,40.07
2022-10-18T09:24:41.172Z,32.03
2022-10-18T09:27:17.015Z,33.17
2022-10-18T09:30:03.348Z,33.80
2022-10-18T09:32:43.545Z,37.40
2022-10-18T09:35:18.051Z,32.23
2022-10-18T09:37:46.997Z,33.30
2022-10-18T09:40:19.430Z,27.57
2022-10-18T09:42:56.431Z,27.30
2022-10-18T09:45:28.840Z,27.37
2022-10-18T09:48:06.861Z,26.27
2022-10-18T09:50:41.175Z,28.03
2022-10-18T09:53:18.902Z,31.10
2022-10-18T09:55:58.105Z,31.33
2022-10-18T09:58:30.555Z,28.00
2022-10-18T10:00:58.801Z,33.63
2022-10-18T10:03:27.023Z,30.10
2022-10-18T10:06:17.062Z,27.27
2022-10-18T10:08:51.129Z,31.60
2022-10-18T10:11:32.786Z,30.30
2022-10-18T10:14:09.470Z,28.10
2022-10-18T10:16:47.756Z,25.90
2022-10-18T10:19:19.169Z,28.00
2022-10-18T10:21:50.246Z,26.83
2022-10-18T10:24:27.401Z,29.43
2022-10-18T10:27:03.717Z,24.07
2022-10-18T10:29:56.998Z,22.57
2022-10-18T10:32:30.886Z,24.80
2022-10-18T10:34:59.495Z,26.10
2022-10-18T10:37:32.024Z,22.90
2022-10-18T10:40:19.608Z,23.97
2022-10-18T10:43:32.997Z,23.17
2022-10-18T10:46:03.715Z,21.97
2022-10-18T10:48:34.598Z,23.70
2022-10-18T10:51:07.971Z,18.13
2022-10-18T10:53:47.027Z,22.30
2022-10-18T10:56:19.525Z,16.93
2022-10-18T10:58:47.787Z,21.23
2022-10-18T11:01:32.090Z,16.77
2022-10-18T11:04:02.387Z,15.83
2022-10-18T11:06:41.462Z,18.97
2022-10-18T11:09:21.542Z,20.27
2022-10-18T11:12:00.682Z,16.13
2022-10-18T11:14:32.657Z,15.63
2022-10-18T11:17:08.964Z,18.27
2022-10-18T11:19:43.805Z,15.30
2022-10-18T11:22:17.154Z,18.17
2022-10-18T11:24:46.325Z,22.07
2022-10-18T11:27:20.751Z,16.03
2022-10-18T11:30:02.164Z,15.27
2022-10-18T11:32:40.103Z,13.07
2022-10-18T11:35:25.967Z,15.63
2022-10-18T11:38:06.921Z,11.70
2022-10-18T11:40:49.450Z,12.13
2022-10-18T11:43:30.165Z,14.80
2022-10-18T11:46:08.127Z,8.70
2022-10-18T11:49:20.108Z,12.80
2022-10-18T11:52:08.789Z,12.73
2022-10-18T11:54:53.357Z,11.97
2022-10-18T11:57:35.030Z,12.90
2022-10-18T12:00:17.198Z,11.60
2022-10-18T12:03:03.142Z,12.10
2022-10-18T12:05:32.822Z,13.43
2022-10-18T12:08:04.976Z,13.63
2022-10-18T12:10:52.753Z,15.00
2022-10-18T12:13:34.027Z,12.67
2022-10-18T12:16:05.086Z,10.53
2022-10-18T12:18:34.078Z,12.73
2022-10-18T12:21:02.148Z,10.33
2022-10-18T12:23:39.003Z,9.23
2022-10-18T12:26:09.206Z,9.60
2022-10-18T12:28:47.953Z,10.33
2022-10-18T12:31:23.203Z,10.47
2022-10-18T12:33:54.340Z,8.97
2022-10-18T12:36:42.559Z,10.57
2022-10-18T12:39:32.468Z,11.67
2022-10-18T12:42:19.791Z,7.50
2022-10-18T12:44:49.160Z,9.73
2022-10-18T12:47:24.404Z,9.50
2022-10-18T12:50:00.012Z,8.33
2022-10-18T12:52:29.876Z,9.93
2022-10-18T12:55:08.340Z,9.07
2022-10-18T12:58:07.356Z,10.57
2022-10-18T13:01:01.275Z,8.70
2022-10-18T13:04:00.133Z,8.00
2022-10-18T13:07:07.852Z,11.97
2022-10-18T13:09:36.976Z,7.67
2022-10-18T13:12:47.135Z,8.07
2022-10-18T13:15:34.404Z,8.80
2022-10-18T13:18:15.659Z,11.53
2022-10-18T13:20:47.794Z,9.93
2022-10-18T13:23:38.213Z,6.23
2022-10-18T13:26:17.494Z,8.33
2022-10-18T13:28:54.016Z,6.53
2022-10-18T13:31:27.079Z,6.67
2022-10-18T13:33:56.385Z,8.13
2022-10-18T13:36:27.117Z,7.43
2022-10-18T13:39:20.114Z,8.03
2022-10-18T13:42:20.093Z,6.17
2022-10-18T13:44:47.911Z,5.37
2022-10-18T13:47:17.415Z,9.27
2022-10-18T13:53:31.938Z,4.67
2022-10-18T13:56:16.076Z,5.93
2022-10-18T13:59:06.130Z,5.83
2022-10-18T14:01:53.282Z,4.73
2022-10-18T14:04:47.873Z,4.80
2022-10-18T14:07:19.163Z,5.83
2022-10-18T14:09:54.946Z,5.43
2022-10-18T14:12:30.299Z,4.67
2022-10-18T14:15:04.413Z,5.47
2022-10-18T14:20:27.143Z,8.33
2022-10-18T14:23:03.631Z,6.07
2022-10-18T14:25:33.843Z,6.80
2022-10-18T14:28:11.397Z,7.10
2022-10-18T14:30:53.673Z,8.67
2022-10-18T14:33:31.326Z,5.67
2022-10-18T14:36:02.315Z,7.87
2022-10-18T14:38:30.794Z,5.87
2022-10-18T14:41:17.267Z,6.47
2022-10-18T14:43:48.093Z,7.07
2022-10-18T14:46:22.325Z,3.70
2022-10-18T14:48:58.067Z,4.50
2022-10-18T14:51:26.386Z,5.80
2022-10-18T14:53:55.190Z,3.63
2022-10-18T14:56:27.250Z,4.23
2022-10-18T14:58:58.072Z,5.30
2022-10-18T15:01:30.210Z,7.57
2022-10-18T15:03:59.780Z,4.17
2022-10-18T15:06:28.487Z,6.30
2022-10-18T15:08:58.943Z,5.03
2022-10-18T15:11:28.166Z,3.87
2022-10-18T15:14:02.977Z,3.90
2022-10-18T15:16:32.728Z,5.87
2022-10-18T15:19:02.998Z,5.20
2022-10-18T15:21:31.143Z,2.20
2022-10-18T15:24:20.576Z,5.93
2022-10-18T15:26:50.613Z,4.60
2022-10-18T15:29:21.781Z,6.00
2022-10-18T15:31:51.198Z,3.47
2022-10-18T15:34:21.326Z,3.77
2022-10-18T15:36:50.578Z,4.00
2022-10-18T15:39:21.210Z,5.63
2022-10-18T15:41:51.000Z,6.70
2022-10-18T15:44:26.353Z,8.50
2022-10-18T15:46:57.278Z,6.80
2022-10-18T15:50:01.432Z,7.03
2022-10-18T15:52:38.558Z,6.23
2022-10-18T15:55:47.437Z,9.00
2022-10-18T15:58:20.008Z,5.67
2022-10-18T16:00:50.726Z,6.17
2022-10-18T16:03:21.719Z,6.10
2022-10-18T16:05:49.936Z,7.07
2022-10-18T16:08:23.061Z,7.53
2022-10-18T16:10:51.435Z,7.17
2022-10-18T16:13:20.573Z,10.57
2022-10-18T16:15:49.760Z,6.60
2022-10-18T16:18:19.946Z,7.73
2022-10-18T16:20:48.888Z,5.90
2022-10-18T16:23:21.973Z,6.20
2022-10-18T16:25:50.260Z,5.43
2022-10-18T16:28:19.824Z,5.10
2022-10-18T16:30:55.389Z,4.70
2022-10-18T16:33:23.267Z,7.93
2022-10-18T16:35:51.117Z,4.93
2022-10-18T16:38:29.910Z,8.20
2022-10-18T16:41:00.942Z,7.17
2022-10-18T16:43:28.798Z,7.93
2022-10-18T16:45:57.989Z,8.80
2022-10-18T16:48:26.198Z,9.63
2022-10-18T16:50:55.658Z,3.53
2022-10-18T16:53:25.165Z,6.57
2022-10-18T16:55:55.480Z,9.10
2022-10-18T17:01:00.348Z,6.63
2022-10-18T17:03:29.867Z,5.00
2022-10-18T17:05:57.663Z,6.50
2022-10-18T17:08:27.469Z,5.30
2022-10-18T17:10:57.991Z,6.13
2022-10-18T17:13:26.892Z,5.37
2022-10-18T17:15:55.002Z,8.03
2022-10-18T17:18:27.541Z,8.40
2022-10-18T17:20:56.524Z,6.70
2022-10-18T17:23:24.377Z,9.37
2022-10-18T17:26:06.928Z,4.00
2022-10-18T17:28:40.452Z,6.70
2022-10-18T17:31:08.568Z,5.17
2022-10-18T17:33:38.073Z,7.90
2022-10-18T17:36:06.072Z,7.90
2022-10-18T17:38:34.500Z,5.10
2022-10-18T17:41:07.656Z,9.20
2022-10-18T17:43:35.485Z,11.00
2022-10-18T17:46:05.158Z,5.47
2022-10-18T17:48:32.944Z,6.00
2022-10-18T17:51:06.939Z,5.97
2022-10-18T17:53:34.897Z,6.00
2022-10-18T17:56:04.480Z,8.50
2022-10-18T17:58:32.824Z,8.77
2022-10-18T18:01:10.164Z,7.43
2022-10-18T18:03:38.320Z,7.70
2022-10-18T18:06:19.510Z,7.57
2022-10-18T18:08:48.371Z,8.97
2022-10-18T18:11:17.274Z,7.90
2022-10-18T18:13:45.062Z,11.40
2022-10-18T18:16:15.144Z,8.60
2022-10-18T18:18:43.729Z,11.87
2022-10-18T18:21:12.283Z,8.27
2022-10-18T18:23:41.526Z,5.53
2022-10-18T18:26:09.442Z,6.23
2022-10-18T18:28:37.726Z,7.20
2022-10-18T18:31:10.283Z,5.73
2022-10-18T18:33:39.167Z,6.33
2022-10-18T18:36:07.909Z,4.30
2022-10-18T18:38:37.638Z,6.03
2022-10-18T18:41:12.038Z,6.93
2022-10-18T18:43:43.309Z,9.73
2022-10-18T18:46:12.568Z,9.67
2022-10-18T18:48:41.060Z,8.73
2022-10-18T18:51:12.980Z,8.67
2022-10-18T18:53:41.371Z,5.67
2022-10-18T18:56:13.949Z,5.03
2022-10-18T18:58:44.057Z,8.17
2022-10-18T19:01:13.764Z,5.37
2022-10-18T19:03:43.262Z,6.03
2022-10-18T19:06:14.228Z,12.63
2022-10-18T19:08:44.634Z,5.37
2022-10-18T19:11:16.798Z,8.73
2022-10-18T19:13:45.172Z,9.83
2022-10-18T19:16:21.835Z,10.23
2022-10-18T19:18:58.691Z,8.67
2022-10-18T19:21:29.458Z,12.33
2022-10-18T19:23:57.916Z,9.27
2022-10-18T19:26:37.187Z,6.87
2022-10-18T19:29:08.946Z,7.77
2022-10-18T19:31:36.870Z,7.53
2022-10-18T19:34:07.231Z,10.73
2022-10-18T19:36:36.074Z,7.50
2022-10-18T19:39:04.267Z,7.70
2022-10-18T19:41:33.513Z,10.80
2022-10-18T19:44:01.420Z,6.27
2022-10-18T19:46:29.256Z,8.37
2022-10-18T19:48:57.037Z,9.57
2022-10-18T19:51:27.866Z,7.93
2022-10-18T19:53:57.411Z,4.63
2022-10-18T19:56:26.499Z,7.60
2022-10-18T19:58:56.599Z,6.83
2022-10-18T20:01:24.742Z,10.67
2022-10-18T20:03:52.601Z,9.53
2022-10-18T20:06:20.917Z,7.47
2022-10-18T20:08:49.347Z,7.30
2022-10-18T20:11:19.442Z,4.77
2022-10-18T20:13:47.377Z,6.70
2022-10-18T20:16:18.085Z,8.53
2022-10-18T20:18:47.194Z,7.87
2022-10-18T20:21:17.025Z,8.97
2022-10-18T20:23:45.480Z,9.13
2022-10-18T20:26:18.147Z,10.33
2022-10-18T20:28:49.125Z,8.47
2022-10-18T20:31:20.181Z,12.40
2022-10-18T20:33:48.735Z,8.10
2022-10-18T20:36:18.594Z,11.67
2022-10-18T20:38:47.823Z,9.33
2022-10-18T20:41:17.735Z,7.93
2022-10-18T20:43:46.210Z,6.33
2022-10-18T20:46:13.965Z,8.80
2022-10-18T20:48:43.146Z,7.50
2022-10-18T20:51:13.416Z,7.23
2022-10-18T20:53:42.136Z,8.40
2022-10-18T20:56:11.381Z,10.90
2022-10-18T20:58:42.200Z,7.57
2022-10-18T21:01:11.888Z,8.57
2022-10-18T21:03:41.585Z,6.10
2022-10-18T21:06:12.366Z,8.37
2022-10-18T21:08:40.708Z,8.00
2022-10-18T21:11:09.210Z,6.20
2022-10-18T21:13:37.379Z,6.50
2022-10-18T21:16:06.626Z,9.47
2022-10-18T21:18:36.374Z,8.13
2022-10-18T21:21:16.482Z,8.83
2022-10-18T21:23:44.558Z,5.80
2022-10-18T21:26:15.788Z,8.70
2022-10-18T21:28:43.967Z,14.37
2022-10-18T21:31:13.751Z,6.70
2022-10-18T21:33:42.129Z,8.87
2022-10-18T21:36:10.456Z,7.17
2022-10-18T21:38:39.907Z,7.13
2022-10-18T21:41:11.448Z,7.03
2022-10-18T21:43:40.833Z,12.40
2022-10-18T21:46:10.013Z,7.87
2022-10-18T21:48:38.747Z,7.47
2022-10-18T21:51:08.613Z,12.23
2022-10-18T21:53:37.187Z,7.97
2022-10-18T21:56:09.247Z,7.70
2022-10-18T21:58:37.798Z,11.77
2022-10-18T22:01:08.830Z,6.57
2022-10-18T22:03:36.675Z,11.23
2022-10-18T22:06:09.361Z,8.53
2022-10-18T22:08:37.463Z,7.47
2022-10-18T22:11:05.745Z,6.47
2022-10-18T22:13:35.209Z,8.87
2022-10-18T22:16:03.352Z,10.83
2022-10-18T22:18:31.848Z,8.63
2022-10-18T22:21:01.552Z,5.93
2022-10-18T22:23:32.930Z,4.87
2022-10-18T22:26:04.240Z,10.17
2022-10-18T22:28:32.316Z,7.00
2022-10-18T22:31:01.655Z,9.17
2022-10-18T22:33:29.665Z,7.97
2022-10-18T22:35:57.615Z,9.03
2022-10-18T22:38:25.601Z,7.40
2022-10-18T22:40:53.447Z,5.67
2022-10-18T22:43:21.221Z,5.17
2022-10-18T22:45:48.996Z,4.83
2022-10-18T22:48:18.167Z,8.47
2022-10-18T22:50:46.201Z,6.43
2022-10-18T22:53:13.994Z,8.00
2022-10-18T22:55:41.771Z,7.03
2022-10-18T22:58:09.552Z,4.27
2022-10-18T23:00:39.229Z,7.10
2022-10-18T23:03:07.193Z,5.37
2022-10-18T23:05:39.719Z,7.80
2022-10-18T23:08:07.701Z,5.67
2022-10-18T23:10:37.583Z,7.10
2022-10-18T23:13:05.631Z,7.63
2022-10-18T23:15:33.718Z,6.40
2022-10-18T23:18:02.135Z,7.17
2022-10-18T23:20:29.996Z,5.00
2022-10-18T23:22:59.170Z,3.23
2022-10-18T23:25:27.350Z,4.13
2022-10-18T23:27:55.185Z,8.07
2022-10-18T23:30:23.007Z,3.43
2022-10-18T23:32:50.811Z,6.80
2022-10-18T23:35:18.794Z,2.83
2022-10-18T23:37:46.568Z,5.03
2022-10-18T23:40:15.822Z,6.17
2022-10-18T23:42:43.560Z,4.80
2022-10-18T23:45:11.638Z,2.43
2022-10-18T23:47:39.450Z,3.47
2022-10-18T23:50:07.955Z,4.13
2022-10-18T23:52:35.764Z,4.13
2022-10-18T23:55:03.599Z,3.20
2022-10-18T23:57:32.934Z,7.67
